Resolven, United Kingdom
Current Conditions -  °F | °C
As of 11:50 AM on Wednesday 28 Jan 2015 (Local Time) from EGDX Reporting Station
Broken Clouds Broken Clouds  
Wind Chill: 33°   Ceiling: 2300
Heat Index: 43°   Visibility: 6mi
Dew Point: 34°   Wind: 26mph
Humidity: 70%   Direction: 290°WNW
Pressure: 29.68"   Gusts: NA
Location:  51.71°N, 3.7°W
Report Text: EGDX 281150Z 29023KT 9999 SCT013 BKN023 06/01 Q1005 GRN
Loading
Personal Weather Stations






























Interactive Weather Map New forecast layout! Learn more

10-Day Weather Forecast

Advertisements
Track Severe Weather on mobile